sensor_id;sensor_type;location;lat;lon;timestamp;pressure;altitude;pressure_sealevel;temperature;humidity
67803;BME280;54601;51.378;-1.342;2023-03-04T00:02:16;101664.79;;;18.01;27.97
67803;BME280;54601;51.378;-1.342;2023-03-04T00:04:40;101665.03;;;18.51;27.66
67803;BME280;54601;51.378;-1.342;2023-03-04T00:07:06;101664.72;;;18.38;27.80
67803;BME280;54601;51.378;-1.342;2023-03-04T00:09:31;101666.04;;;18.03;27.66
67803;BME280;54601;51.378;-1.342;2023-03-04T00:11:56;101664.24;;;18.03;27.66
67803;BME280;54601;51.378;-1.342;2023-03-04T00:14:21;101659.36;;;18.01;27.66
67803;BME280;54601;51.378;-1.342;2023-03-04T00:16:47;101658.10;;;18.05;27.62
67803;BME280;54601;51.378;-1.342;2023-03-04T00:19:12;101660.35;;;18.06;27.60
67803;BME280;54601;51.378;-1.342;2023-03-04T00:21:37;101657.24;;;18.28;27.64
67803;BME280;54601;51.378;-1.342;2023-03-04T00:24:02;101656.92;;;18.09;27.54
67803;BME280;54601;51.378;-1.342;2023-03-04T00:26:27;101661.66;;;18.30;27.60
67803;BME280;54601;51.378;-1.342;2023-03-04T00:28:53;101661.69;;;18.03;27.59
67803;BME280;54601;51.378;-1.342;2023-03-04T00:31:18;101663.00;;;18.08;27.50
67803;BME280;54601;51.378;-1.342;2023-03-04T00:33:43;101665.60;;;18.07;27.53
67803;BME280;54601;51.378;-1.342;2023-03-04T00:36:09;101667.48;;;18.10;27.49
67803;BME280;54601;51.378;-1.342;2023-03-04T00:38:33;101666.99;;;18.18;27.45
67803;BME280;54601;51.378;-1.342;2023-03-04T00:40:59;101671.27;;;18.20;27.41
67803;BME280;54601;51.378;-1.342;2023-03-04T00:43:24;101673.17;;;18.20;27.40
67803;BME280;54601;51.378;-1.342;2023-03-04T00:45:49;101676.02;;;18.06;27.53
67803;BME280;54601;51.378;-1.342;2023-03-04T00:48:15;101673.03;;;18.27;27.31
67803;BME280;54601;51.378;-1.342;2023-03-04T00:50:39;101672.94;;;18.79;27.30
67803;BME280;54601;51.378;-1.342;2023-03-04T00:53:05;101673.07;;;18.18;27.44
67803;BME280;54601;51.378;-1.342;2023-03-04T00:55:30;101673.59;;;18.08;27.53
67803;BME280;54601;51.378;-1.342;2023-03-04T00:57:55;101677.79;;;18.59;27.28
67803;BME280;54601;51.378;-1.342;2023-03-04T01:00:21;101679.40;;;18.49;27.37
67803;BME280;54601;51.378;-1.342;2023-03-04T01:02:45;101683.69;;;18.11;27.48
67803;BME280;54601;51.378;-1.342;2023-03-04T01:05:11;101684.36;;;18.36;27.26
67803;BME280;54601;51.378;-1.342;2023-03-04T01:07:36;101688.50;;;18.54;27.35
67803;BME280;54601;51.378;-1.342;2023-03-04T01:10:01;101689.10;;;18.63;27.23
67803;BME280;54601;51.378;-1.342;2023-03-04T01:12:26;101688.83;;;18.17;27.40
67803;BME280;54601;51.378;-1.342;2023-03-04T01:14:51;101688.17;;;18.34;27.23
67803;BME280;54601;51.378;-1.342;2023-03-04T01:17:17;101689.21;;;18.48;27.36
67803;BME280;54601;51.378;-1.342;2023-03-04T01:19:42;101692.31;;;18.29;27.34
67803;BME280;54601;51.378;-1.342;2023-03-04T01:22:07;101690.87;;;18.24;27.32
67803;BME280;54601;51.378;-1.342;2023-03-04T01:24:32;101693.29;;;18.28;27.29
67803;BME280;54601;51.378;-1.342;2023-03-04T01:26:57;101691.16;;;18.33;27.24
67803;BME280;54601;51.378;-1.342;2023-03-04T01:29:22;101685.14;;;18.25;27.26
67803;BME280;54601;51.378;-1.342;2023-03-04T01:31:48;101682.68;;;18.28;27.20
67803;BME280;54601;51.378;-1.342;2023-03-04T01:34:13;101684.55;;;18.42;27.06
67803;BME280;54601;51.378;-1.342;2023-03-04T01:36:38;101679.32;;;18.39;27.09
67803;BME280;54601;51.378;-1.342;2023-03-04T01:39:04;101680.20;;;18.42;27.03
67803;BME280;54601;51.378;-1.342;2023-03-04T01:41:28;101680.13;;;18.54;26.93
67803;BME280;54601;51.378;-1.342;2023-03-04T01:43:55;101679.38;;;18.26;26.92
67803;BME280;54601;51.378;-1.342;2023-03-04T01:46:19;101677.65;;;18.08;27.08
67803;BME280;54601;51.378;-1.342;2023-03-04T01:48:44;101673.77;;;18.37;27.00
67803;BME280;54601;51.378;-1.342;2023-03-04T01:51:13;101671.03;;;18.45;26.96
67803;BME280;54601;51.378;-1.342;2023-03-04T01:53:34;101662.24;;;18.58;26.78
67803;BME280;54601;51.378;-1.342;2023-03-04T01:56:01;101657.69;;;18.53;26.79
67803;BME280;54601;51.378;-1.342;2023-03-04T01:58:28;101655.59;;;18.58;26.74
67803;BME280;54601;51.378;-1.342;2023-03-04T02:00:50;101653.27;;;18.74;26.83
67803;BME280;54601;51.378;-1.342;2023-03-04T02:03:17;101652.31;;;18.49;26.83
67803;BME280;54601;51.378;-1.342;2023-03-04T02:05:43;101650.13;;;18.55;26.73
67803;BME280;54601;51.378;-1.342;2023-03-04T02:08:06;101641.55;;;18.48;26.74
67803;BME280;54601;51.378;-1.342;2023-03-04T02:10:31;101639.79;;;18.38;26.83
67803;BME280;54601;51.378;-1.342;2023-03-04T02:12:56;101634.52;;;18.54;26.68
67803;BME280;54601;51.378;-1.342;2023-03-04T02:15:22;101636.65;;;18.43;26.61
67803;BME280;54601;51.378;-1.342;2023-03-04T02:17:46;101633.47;;;18.60;26.61
67803;BME280;54601;51.378;-1.342;2023-03-04T02:20:22;101628.44;;;18.72;26.50
67803;BME280;54601;51.378;-1.342;2023-03-04T02:22:41;101624.76;;;18.60;26.59
67803;BME280;54601;51.378;-1.342;2023-03-04T02:25:07;101622.99;;;18.93;26.51
67803;BME280;54601;51.378;-1.342;2023-03-04T02:27:27;101622.01;;;18.68;26.44
67803;BME280;54601;51.378;-1.342;2023-03-04T02:29:52;101623.54;;;18.87;26.49
67803;BME280;54601;51.378;-1.342;2023-03-04T02:32:17;101622.51;;;18.67;26.42
67803;BME280;54601;51.378;-1.342;2023-03-04T02:34:46;101625.21;;;18.68;26.42
67803;BME280;54601;51.378;-1.342;2023-03-04T02:37:09;101623.56;;;18.68;26.38
67803;BME280;54601;51.378;-1.342;2023-03-04T02:39:37;101623.44;;;18.68;26.35
67803;BME280;54601;51.378;-1.342;2023-03-04T02:41:59;101624.25;;;18.65;26.42
67803;BME280;54601;51.378;-1.342;2023-03-04T02:44:25;101623.25;;;18.91;26.43
67803;BME280;54601;51.378;-1.342;2023-03-04T02:46:49;101621.00;;;18.55;26.52
67803;BME280;54601;51.378;-1.342;2023-03-04T02:49:14;101622.11;;;18.46;26.60
67803;BME280;54601;51.378;-1.342;2023-03-04T02:51:39;101622.81;;;18.58;26.45
67803;BME280;54601;51.378;-1.342;2023-03-04T02:56:30;101621.30;;;18.65;26.38
67803;BME280;54601;51.378;-1.342;2023-03-04T02:58:55;101620.95;;;18.56;26.43
67803;BME280;54601;51.378;-1.342;2023-03-04T03:01:20;101626.41;;;18.48;26.49
67803;BME280;54601;51.378;-1.342;2023-03-04T03:03:45;101623.17;;;18.53;26.48
67803;BME280;54601;51.378;-1.342;2023-03-04T03:06:10;101621.90;;;18.56;26.44
67803;BME280;54601;51.378;-1.342;2023-03-04T03:08:36;101619.49;;;18.79;26.47
67803;BME280;54601;51.378;-1.342;2023-03-04T03:11:01;101615.80;;;18.68;26.30
67803;BME280;54601;51.378;-1.342;2023-03-04T03:13:26;101613.44;;;18.87;26.37
67803;BME280;54601;51.378;-1.342;2023-03-04T03:15:51;101617.27;;;18.73;26.22
67803;BME280;54601;51.378;-1.342;2023-03-04T03:18:16;101620.21;;;18.48;26.45
67803;BME280;54601;51.378;-1.342;2023-03-04T03:20:41;101619.12;;;18.55;26.40
67803;BME280;54601;51.378;-1.342;2023-03-04T03:23:07;101618.70;;;18.51;26.44
67803;BME280;54601;51.378;-1.342;2023-03-04T03:25:32;101622.33;;;18.29;26.43
67803;BME280;54601;51.378;-1.342;2023-03-04T03:27:57;101623.30;;;18.47;26.45
67803;BME280;54601;51.378;-1.342;2023-03-04T03:30:22;101621.32;;;18.60;26.27
67803;BME280;54601;51.378;-1.342;2023-03-04T03:32:47;101625.83;;;18.52;26.33
67803;BME280;54601;51.378;-1.342;2023-03-04T03:35:13;101620.60;;;18.52;26.39
67803;BME280;54601;51.378;-1.342;2023-03-04T03:37:38;101621.16;;;18.70;26.19
67803;BME280;54601;51.378;-1.342;2023-03-04T03:40:04;101620.87;;;18.71;26.17
67803;BME280;54601;51.378;-1.342;2023-03-04T03:42:28;101621.60;;;18.58;26.27
67803;BME280;54601;51.378;-1.342;2023-03-04T03:44:53;101621.68;;;18.63;26.23
67803;BME280;54601;51.378;-1.342;2023-03-04T03:47:19;101618.66;;;18.34;26.27
67803;BME280;54601;51.378;-1.342;2023-03-04T03:49:44;101617.68;;;18.59;26.21
67803;BME280;54601;51.378;-1.342;2023-03-04T03:52:09;101616.37;;;18.52;26.07
67803;BME280;54601;51.378;-1.342;2023-03-04T03:54:34;101610.82;;;18.59;26.19
67803;BME280;54601;51.378;-1.342;2023-03-04T03:56:59;101611.54;;;18.71;26.07
67803;BME280;54601;51.378;-1.342;2023-03-04T03:59:25;101611.12;;;18.56;25.99
67803;BME280;54601;51.378;-1.342;2023-03-04T04:01:50;101614.18;;;18.64;26.08
67803;BME280;54601;51.378;-1.342;2023-03-04T04:04:16;101619.38;;;18.69;26.03
67803;BME280;54601;51.378;-1.342;2023-03-04T04:06:40;101620.28;;;18.69;26.02
67803;BME280;54601;51.378;-1.342;2023-03-04T04:09:06;101619.80;;;18.70;25.98
67803;BME280;54601;51.378;-1.342;2023-03-04T04:11:31;101620.14;;;18.52;25.92
67803;BME280;54601;51.378;-1.342;2023-03-04T04:13:56;101620.84;;;18.89;25.78
67803;BME280;54601;51.378;-1.342;2023-03-04T04:16:21;101617.24;;;18.71;25.96
67803;BME280;54601;51.378;-1.342;2023-03-04T04:18:47;101617.22;;;18.71;25.96
67803;BME280;54601;51.378;-1.342;2023-03-04T04:21:12;101614.36;;;18.75;25.84
67803;BME280;54601;51.378;-1.342;2023-03-04T04:23:37;101619.77;;;18.77;25.84
67803;BME280;54601;51.378;-1.342;2023-03-04T04:26:02;101623.21;;;18.54;25.82
67803;BME280;54601;51.378;-1.342;2023-03-04T04:28:28;101623.07;;;18.73;25.88
67803;BME280;54601;51.378;-1.342;2023-03-04T04:30:53;101623.84;;;18.84;25.73
67803;BME280;54601;51.378;-1.342;2023-03-04T04:33:18;101621.95;;;18.56;25.79
67803;BME280;54601;51.378;-1.342;2023-03-04T04:35:43;101625.66;;;19.10;25.74
67803;BME280;54601;51.378;-1.342;2023-03-04T04:38:09;101630.86;;;19.07;25.78
67803;BME280;54601;51.378;-1.342;2023-03-04T04:40:34;101637.99;;;18.83;25.73
67803;BME280;54601;51.378;-1.342;2023-03-04T04:42:59;101639.32;;;18.99;25.59
67803;BME280;54601;51.378;-1.342;2023-03-04T04:45:24;101641.47;;;18.90;25.44
67803;BME280;54601;51.378;-1.342;2023-03-04T04:47:49;101640.41;;;19.12;25.42
67803;BME280;54601;51.378;-1.342;2023-03-04T04:50:15;101642.04;;;19.28;25.23
67803;BME280;54601;51.378;-1.342;2023-03-04T04:52:40;101643.20;;;19.09;25.38
67803;BME280;54601;51.378;-1.342;2023-03-04T04:55:06;101643.34;;;19.12;25.35
67803;BME280;54601;51.378;-1.342;2023-03-04T04:57:30;101643.83;;;19.43;25.09
67803;BME280;54601;51.378;-1.342;2023-03-04T04:59:55;101641.91;;;18.88;25.51
67803;BME280;54601;51.378;-1.342;2023-03-04T05:02:21;101638.02;;;19.16;25.30
67803;BME280;54601;51.378;-1.342;2023-03-04T05:04:46;101643.73;;;19.20;25.29
67803;BME280;54601;51.378;-1.342;2023-03-04T05:07:11;101641.39;;;18.92;25.28
67803;BME280;54601;51.378;-1.342;2023-03-04T05:09:36;101645.63;;;18.94;25.23
67803;BME280;54601;51.378;-1.342;2023-03-04T05:12:02;101640.97;;;19.10;25.23
67803;BME280;54601;51.378;-1.342;2023-03-04T05:14:27;101642.01;;;18.96;25.33
67803;BME280;54601;51.378;-1.342;2023-03-04T05:16:52;101642.17;;;19.18;25.13
67803;BME280;54601;51.378;-1.342;2023-03-04T05:19:17;101640.87;;;18.83;25.22
67803;BME280;54601;51.378;-1.342;2023-03-04T05:21:42;101642.47;;;19.09;25.21
67803;BME280;54601;51.378;-1.342;2023-03-04T05:24:08;101642.73;;;19.09;25.21
67803;BME280;54601;51.378;-1.342;2023-03-04T05:26:33;101641.37;;;19.22;25.06
67803;BME280;54601;51.378;-1.342;2023-03-04T05:28:58;101644.26;;;19.22;25.09
67803;BME280;54601;51.378;-1.342;2023-03-04T05:31:23;101644.59;;;18.92;25.12
67803;BME280;54601;51.378;-1.342;2023-03-04T05:33:48;101646.56;;;19.21;25.03
67803;BME280;54601;51.378;-1.342;2023-03-04T05:36:13;101643.03;;;18.71;25.10
67803;BME280;54601;51.378;-1.342;2023-03-04T05:38:39;101649.75;;;19.02;25.19
67803;BME280;54601;51.378;-1.342;2023-03-04T05:41:06;101650.44;;;18.96;25.27
67803;BME280;54601;51.378;-1.342;2023-03-04T05:43:30;101649.91;;;18.76;25.16
67803;BME280;54601;51.378;-1.342;2023-03-04T05:45:54;101643.15;;;19.34;25.11
67803;BME280;54601;51.378;-1.342;2023-03-04T05:48:20;101644.77;;;18.98;25.19
67803;BME280;54601;51.378;-1.342;2023-03-04T05:50:45;101643.43;;;18.61;25.28
67803;BME280;54601;51.378;-1.342;2023-03-04T05:53:10;101645.63;;;18.86;25.07
67803;BME280;54601;51.378;-1.342;2023-03-04T05:55:35;101647.35;;;18.97;25.18
67803;BME280;54601;51.378;-1.342;2023-03-04T05:58:00;101650.81;;;19.07;25.09
67803;BME280;54601;51.378;-1.342;2023-03-04T06:00:26;101650.10;;;18.90;24.98
67803;BME280;54601;51.378;-1.342;2023-03-04T06:02:51;101651.14;;;18.98;25.14
67803;BME280;54601;51.378;-1.342;2023-03-04T06:05:16;101653.61;;;19.04;25.06
67803;BME280;54601;51.378;-1.342;2023-03-04T06:07:42;101652.44;;;19.12;24.98
67803;BME280;54601;51.378;-1.342;2023-03-04T06:10:07;101651.60;;;18.66;25.21
67803;BME280;54601;51.378;-1.342;2023-03-04T06:12:32;101651.26;;;18.89;25.17
67803;BME280;54601;51.378;-1.342;2023-03-04T06:14:57;101647.35;;;19.17;24.87
67803;BME280;54601;51.378;-1.342;2023-03-04T06:17:22;101648.47;;;18.94;24.79
67803;BME280;54601;51.378;-1.342;2023-03-04T06:19:47;101651.89;;;19.07;24.86
67803;BME280;54601;51.378;-1.342;2023-03-04T06:22:17;101648.06;;;19.23;24.76
67803;BME280;54601;51.378;-1.342;2023-03-04T06:24:38;101650.35;;;19.37;24.81
67803;BME280;54601;51.378;-1.342;2023-03-04T06:27:03;101650.56;;;19.04;24.85
67803;BME280;54601;51.378;-1.342;2023-03-04T06:29:28;101651.19;;;18.56;24.89
67803;BME280;54601;51.378;-1.342;2023-03-04T06:31:53;101653.02;;;18.87;24.80
67803;BME280;54601;51.378;-1.342;2023-03-04T06:34:19;101655.65;;;18.82;25.04
67803;BME280;54601;51.378;-1.342;2023-03-04T06:36:44;101655.71;;;19.10;24.80
67803;BME280;54601;51.378;-1.342;2023-03-04T06:39:09;101658.94;;;18.94;24.95
67803;BME280;54601;51.378;-1.342;2023-03-04T06:41:34;101660.74;;;19.22;24.72
67803;BME280;54601;51.378;-1.342;2023-03-04T06:43:59;101659.49;;;19.08;24.77
67803;BME280;54601;51.378;-1.342;2023-03-04T06:46:25;101658.31;;;18.88;24.73
67803;BME280;54601;51.378;-1.342;2023-03-04T06:48:50;101661.32;;;19.54;24.58
67803;BME280;54601;51.378;-1.342;2023-03-04T06:51:16;101664.29;;;19.09;24.68
67803;BME280;54601;51.378;-1.342;2023-03-04T06:53:41;101663.65;;;18.72;24.83
67803;BME280;54601;51.378;-1.342;2023-03-04T06:56:07;101665.14;;;19.16;24.64
67803;BME280;54601;51.378;-1.342;2023-03-04T06:58:31;101664.84;;;19.09;24.64
67803;BME280;54601;51.378;-1.342;2023-03-04T07:00:56;101668.61;;;19.01;24.68
67803;BME280;54601;51.378;-1.342;2023-03-04T07:03:21;101671.23;;;19.04;24.69
67803;BME280;54601;51.378;-1.342;2023-03-04T07:05:47;101677.70;;;19.16;24.54
67803;BME280;54601;51.378;-1.342;2023-03-04T07:08:12;101683.02;;;18.92;24.74
67803;BME280;54601;51.378;-1.342;2023-03-04T07:10:37;101684.29;;;19.09;24.61
67803;BME280;54601;51.378;-1.342;2023-03-04T07:13:02;101688.92;;;19.06;24.59
67803;BME280;54601;51.378;-1.342;2023-03-04T07:15:28;101689.10;;;19.07;24.57
67803;BME280;54601;51.378;-1.342;2023-03-04T07:17:53;101694.78;;;18.96;24.65
67803;BME280;54601;51.378;-1.342;2023-03-04T07:20:18;101695.11;;;19.15;24.47
67803;BME280;54601;51.378;-1.342;2023-03-04T07:22:43;101696.91;;;19.15;24.44
67803;BME280;54601;51.378;-1.342;2023-03-04T07:25:09;101699.86;;;19.09;24.46
67803;BME280;54601;51.378;-1.342;2023-03-04T07:27:34;101702.51;;;18.92;24.36
67803;BME280;54601;51.378;-1.342;2023-03-04T07:29:59;101704.91;;;19.10;24.37
67803;BME280;54601;51.378;-1.342;2023-03-04T07:32:24;101707.56;;;19.26;24.43
67803;BME280;54601;51.378;-1.342;2023-03-04T07:34:50;101703.09;;;19.02;24.43
67803;BME280;54601;51.378;-1.342;2023-03-04T07:37:15;101701.81;;;18.92;24.52
67803;BME280;54601;51.378;-1.342;2023-03-04T07:39:40;101703.01;;;18.85;24.55
67803;BME280;54601;51.378;-1.342;2023-03-04T07:42:05;101703.40;;;19.00;24.42
67803;BME280;54601;51.378;-1.342;2023-03-04T07:44:30;101708.04;;;18.90;24.47
67803;BME280;54601;51.378;-1.342;2023-03-04T07:46:56;101704.35;;;18.92;24.47
67803;BME280;54601;51.378;-1.342;2023-03-04T07:49:21;101703.64;;;18.87;24.51
67803;BME280;54601;51.378;-1.342;2023-03-04T07:51:46;101705.72;;;18.81;24.49
67803;BME280;54601;51.378;-1.342;2023-03-04T07:54:11;101706.19;;;19.23;24.33
67803;BME280;54601;51.378;-1.342;2023-03-04T07:56:36;101710.42;;;18.97;24.33
67803;BME280;54601;51.378;-1.342;2023-03-04T07:59:02;101705.60;;;18.94;24.33
67803;BME280;54601;51.378;-1.342;2023-03-04T08:01:28;101706.46;;;18.98;24.29
67803;BME280;54601;51.378;-1.342;2023-03-04T08:03:52;101700.73;;;18.93;24.31
67803;BME280;54601;51.378;-1.342;2023-03-04T08:06:19;101703.68;;;19.02;24.21
67803;BME280;54601;51.378;-1.342;2023-03-04T08:08:42;101704.35;;;18.86;24.40
67803;BME280;54601;51.378;-1.342;2023-03-04T08:11:09;101703.38;;;18.98;24.22
67803;BME280;54601;51.378;-1.342;2023-03-04T08:13:33;101707.86;;;19.59;24.20
67803;BME280;54601;51.378;-1.342;2023-03-04T08:15:58;101703.52;;;19.18;24.47
67803;BME280;54601;51.378;-1.342;2023-03-04T08:18:23;101705.60;;;19.43;23.99
67803;BME280;54601;51.378;-1.342;2023-03-04T08:20:48;101706.33;;;19.14;24.13
67803;BME280;54601;51.378;-1.342;2023-03-04T08:23:13;101709.61;;;19.05;24.04
67803;BME280;54601;51.378;-1.342;2023-03-04T08:25:39;101707.36;;;18.95;24.15
67803;BME280;54601;51.378;-1.342;2023-03-04T08:28:04;101704.25;;;18.89;24.18
67803;BME280;54601;51.378;-1.342;2023-03-04T08:30:29;101709.34;;;19.10;24.26
67803;BME280;54601;51.378;-1.342;2023-03-04T08:32:54;101705.95;;;18.93;24.15
67803;BME280;54601;51.378;-1.342;2023-03-04T08:35:19;101709.79;;;18.78;24.29
67803;BME280;54601;51.378;-1.342;2023-03-04T08:37:45;101708.03;;;19.03;24.03
67803;BME280;54601;51.378;-1.342;2023-03-04T08:40:11;101710.21;;;18.67;24.35
67803;BME280;54601;51.378;-1.342;2023-03-04T08:42:35;101710.66;;;19.22;24.09
67803;BME280;54601;51.378;-1.342;2023-03-04T08:45:00;101709.20;;;19.00;24.06
67803;BME280;54601;51.378;-1.342;2023-03-04T08:47:25;101708.77;;;19.09;24.24
67803;BME280;54601;51.378;-1.342;2023-03-04T08:49:51;101707.04;;;19.19;24.17
67803;BME280;54601;51.378;-1.342;2023-03-04T08:52:16;101711.46;;;19.06;24.21
67803;BME280;54601;51.378;-1.342;2023-03-04T08:54:41;101718.19;;;19.17;24.14
67803;BME280;54601;51.378;-1.342;2023-03-04T08:57:06;101718.56;;;18.92;24.35
67803;BME280;54601;51.378;-1.342;2023-03-04T08:59:31;101721.85;;;19.15;24.12
67803;BME280;54601;51.378;-1.342;2023-03-04T09:01:57;101725.94;;;19.16;24.09
67803;BME280;54601;51.378;-1.342;2023-03-04T09:04:22;101725.73;;;19.28;24.14
67803;BME280;54601;51.378;-1.342;2023-03-04T09:06:47;101725.50;;;18.76;24.14
67803;BME280;54601;51.378;-1.342;2023-03-04T09:09:12;101727.90;;;19.32;24.18
67803;BME280;54601;51.378;-1.342;2023-03-04T09:11:38;101726.94;;;18.78;24.11
67803;BME280;54601;51.378;-1.342;2023-03-04T09:14:03;101727.92;;;18.62;24.28
67803;BME280;54601;51.378;-1.342;2023-03-04T09:16:28;101726.21;;;18.72;24.13
67803;BME280;54601;51.378;-1.342;2023-03-04T09:18:53;101726.47;;;18.88;24.07
67803;BME280;54601;51.378;-1.342;2023-03-04T09:21:19;101727.01;;;18.62;24.21
67803;BME280;54601;51.378;-1.342;2023-03-04T09:23:44;101732.62;;;18.57;24.29
67803;BME280;54601;51.378;-1.342;2023-03-04T09:26:14;101729.28;;;18.58;24.22
67803;BME280;54601;51.378;-1.342;2023-03-04T09:28:34;101726.90;;;19.01;24.12
67803;BME280;54601;51.378;-1.342;2023-03-04T09:30:59;101726.80;;;18.78;24.08
67803;BME280;54601;51.378;-1.342;2023-03-04T09:33:25;101730.15;;;19.20;23.91
67803;BME280;54601;51.378;-1.342;2023-03-04T09:35:50;101725.45;;;18.76;24.00
67803;BME280;54601;51.378;-1.342;2023-03-04T09:38:20;101726.42;;;19.29;23.83
67803;BME280;54601;51.378;-1.342;2023-03-04T09:40:43;101726.01;;;18.86;23.93
67803;BME280;54601;51.378;-1.342;2023-03-04T09:43:11;101724.85;;;18.79;23.87
67803;BME280;54601;51.378;-1.342;2023-03-04T09:45:36;101724.72;;;19.00;23.96
67803;BME280;54601;51.378;-1.342;2023-03-04T09:47:56;101722.36;;;18.94;23.96
67803;BME280;54601;51.378;-1.342;2023-03-04T09:50:22;101723.08;;;18.75;23.98
67803;BME280;54601;51.378;-1.342;2023-03-04T09:52:58;101722.50;;;18.65;23.92
67803;BME280;54601;51.378;-1.342;2023-03-04T09:55:17;101723.07;;;19.05;23.83
67803;BME280;54601;51.378;-1.342;2023-03-04T09:57:45;101721.46;;;19.01;23.97
67803;BME280;54601;51.378;-1.342;2023-03-04T10:00:10;101723.74;;;18.82;24.01
67803;BME280;54601;51.378;-1.342;2023-03-04T10:02:36;101723.64;;;18.85;24.16
67803;BME280;54601;51.378;-1.342;2023-03-04T10:04:58;101720.41;;;18.84;23.98
67803;BME280;54601;51.378;-1.342;2023-03-04T10:07:21;101720.98;;;18.70;24.19
67803;BME280;54601;51.378;-1.342;2023-03-04T10:09:46;101716.91;;;18.60;24.03
67803;BME280;54601;51.378;-1.342;2023-03-04T10:12:12;101717.98;;;18.71;24.05
67803;BME280;54601;51.378;-1.342;2023-03-04T10:14:37;101718.17;;;18.78;24.03
67803;BME280;54601;51.378;-1.342;2023-03-04T10:17:05;101718.72;;;18.62;24.17
67803;BME280;54601;51.378;-1.342;2023-03-04T10:19:32;101719.31;;;18.81;23.98
67803;BME280;54601;51.378;-1.342;2023-03-04T10:21:51;101720.28;;;18.58;24.15
67803;BME280;54601;51.378;-1.342;2023-03-04T10:24:18;101721.69;;;18.64;24.08
67803;BME280;54601;51.378;-1.342;2023-03-04T10:26:41;101719.19;;;18.76;23.98
67803;BME280;54601;51.378;-1.342;2023-03-04T10:29:05;101714.88;;;18.98;23.97
67803;BME280;54601;51.378;-1.342;2023-03-04T10:31:33;101712.37;;;18.70;24.00
67803;BME280;54601;51.378;-1.342;2023-03-04T10:33:56;101710.79;;;18.98;23.94
67803;BME280;54601;51.378;-1.342;2023-03-04T10:36:32;101710.60;;;18.62;23.85
67803;BME280;54601;51.378;-1.342;2023-03-04T10:38:46;101706.81;;;18.36;24.00
67803;BME280;54601;51.378;-1.342;2023-03-04T10:41:13;101706.50;;;18.77;24.07
67803;BME280;54601;51.378;-1.342;2023-03-04T10:43:37;101704.65;;;18.65;24.05
67803;BME280;54601;51.378;-1.342;2023-03-04T10:46:02;101700.23;;;18.80;24.08
67803;BME280;54601;51.378;-1.342;2023-03-04T10:48:29;101704.78;;;18.60;24.03
67803;BME280;54601;51.378;-1.342;2023-03-04T10:50:53;101710.83;;;18.92;23.81
67803;BME280;54601;51.378;-1.342;2023-03-04T10:53:26;101701.83;;;18.76;24.02
67803;BME280;54601;51.378;-1.342;2023-03-04T10:55:44;101702.88;;;19.00;23.85
67803;BME280;54601;51.378;-1.342;2023-03-04T10:58:14;101693.85;;;18.69;24.09
67803;BME280;54601;51.378;-1.342;2023-03-04T11:00:35;101693.21;;;18.78;23.87
67803;BME280;54601;51.378;-1.342;2023-03-04T11:05:24;101687.70;;;18.56;23.99
67803;BME280;54601;51.378;-1.342;2023-03-04T11:07:50;101686.36;;;18.47;24.09
67803;BME280;54601;51.378;-1.342;2023-03-04T11:10:17;101687.71;;;18.36;23.95
67803;BME280;54601;51.378;-1.342;2023-03-04T11:12:39;101688.03;;;18.69;24.11
67803;BME280;54601;51.378;-1.342;2023-03-04T11:17:40;101688.33;;;18.69;23.95
67803;BME280;54601;51.378;-1.342;2023-03-04T11:19:59;101687.16;;;18.57;23.93
67803;BME280;54601;51.378;-1.342;2023-03-04T11:22:21;101686.11;;;18.48;24.06
67803;BME280;54601;51.378;-1.342;2023-03-04T11:24:47;101689.43;;;18.42;24.23
67803;BME280;54601;51.378;-1.342;2023-03-04T11:27:16;101687.45;;;18.81;24.11
67803;BME280;54601;51.378;-1.342;2023-03-04T11:29:38;101686.80;;;18.37;24.12
67803;BME280;54601;51.378;-1.342;2023-03-04T11:32:07;101682.36;;;18.45;24.07
67803;BME280;54601;51.378;-1.342;2023-03-04T11:34:33;101681.02;;;17.82;24.39
67803;BME280;54601;51.378;-1.342;2023-03-04T11:36:55;101681.81;;;18.64;24.10
67803;BME280;54601;51.378;-1.342;2023-03-04T11:39:21;101675.66;;;18.52;24.25
67803;BME280;54601;51.378;-1.342;2023-03-04T11:41:44;101670.98;;;18.48;24.09
67803;BME280;54601;51.378;-1.342;2023-03-04T11:44:08;101669.50;;;18.38;24.33
67803;BME280;54601;51.378;-1.342;2023-03-04T11:46:43;101666.60;;;18.33;24.19
67803;BME280;54601;51.378;-1.342;2023-03-04T11:49:08;101664.66;;;18.55;24.17
67803;BME280;54601;51.378;-1.342;2023-03-04T11:51:26;101660.25;;;18.52;24.24
67803;BME280;54601;51.378;-1.342;2023-03-04T11:53:56;101661.34;;;18.29;24.25
67803;BME280;54601;51.378;-1.342;2023-03-04T11:56:21;101656.47;;;18.25;24.27
67803;BME280;54601;51.378;-1.342;2023-03-04T11:58:48;101655.58;;;18.03;24.46
67803;BME280;54601;51.378;-1.342;2023-03-04T12:01:07;101654.13;;;18.70;24.08
67803;BME280;54601;51.378;-1.342;2023-03-04T12:03:39;101653.64;;;18.59;24.19
67803;BME280;54601;51.378;-1.342;2023-03-04T12:05:59;101646.66;;;18.47;24.27
67803;BME280;54601;51.378;-1.342;2023-03-04T12:08:27;101637.51;;;18.12;24.40
67803;BME280;54601;51.378;-1.342;2023-03-04T12:10:51;101640.29;;;18.45;24.32
67803;BME280;54601;51.378;-1.342;2023-03-04T12:13:21;101638.57;;;18.34;24.11
67803;BME280;54601;51.378;-1.342;2023-03-04T12:15:40;101632.49;;;18.49;24.15
67803;BME280;54601;51.378;-1.342;2023-03-04T12:18:12;101633.05;;;18.27;24.23
67803;BME280;54601;51.378;-1.342;2023-03-04T12:20:34;101628.12;;;18.47;24.21
67803;BME280;54601;51.378;-1.342;2023-03-04T12:22:52;101620.70;;;18.44;24.22
67803;BME280;54601;51.378;-1.342;2023-03-04T12:27:45;101621.37;;;18.40;24.03
67803;BME280;54601;51.378;-1.342;2023-03-04T12:30:08;101623.94;;;18.40;24.22
67803;BME280;54601;51.378;-1.342;2023-03-04T12:32:36;101622.56;;;18.17;24.25
67803;BME280;54601;51.378;-1.342;2023-03-04T12:39:55;101619.51;;;17.89;24.27
67803;BME280;54601;51.378;-1.342;2023-03-04T12:42:20;101615.91;;;18.37;24.25
67803;BME280;54601;51.378;-1.342;2023-03-04T12:44:40;101614.29;;;18.16;24.22